sensor_id;sensor_type;location;lat;lon;timestamp;temperature;humidity
20384;DHT22;46458;50.966;7.002;2023-07-09T00:02:12;24.40;99.90
20384;DHT22;46458;50.966;7.002;2023-07-09T00:04:44;24.50;99.90
20384;DHT22;46458;50.966;7.002;2023-07-09T00:07:28;24.50;99.90
20384;DHT22;46458;50.966;7.002;2023-07-09T00:10:00;24.50;99.90
20384;DHT22;46458;50.966;7.002;2023-07-09T00:12:29;24.50;99.90
20384;DHT22;46458;50.966;7.002;2023-07-09T00:14:58;24.40;99.90
20384;DHT22;46458;50.966;7.002;2023-07-09T00:17:29;24.40;99.90
20384;DHT22;46458;50.966;7.002;2023-07-09T00:20:03;24.40;99.90
20384;DHT22;46458;50.966;7.002;2023-07-09T00:22:37;24.50;99.90
20384;DHT22;46458;50.966;7.002;2023-07-09T00:25:09;24.30;99.90
20384;DHT22;46458;50.966;7.002;2023-07-09T00:27:42;24.40;99.90
20384;DHT22;46458;50.966;7.002;2023-07-09T00:30:16;24.40;99.90
20384;DHT22;46458;50.966;7.002;2023-07-09T00:32:45;24.40;99.90
20384;DHT22;46458;50.966;7.002;2023-07-09T00:35:17;24.30;99.90
20384;DHT22;46458;50.966;7.002;2023-07-09T00:37:46;24.30;99.90
20384;DHT22;46458;50.966;7.002;2023-07-09T00:40:18;24.30;99.90
20384;DHT22;46458;50.966;7.002;2023-07-09T00:42:49;24.30;99.90
20384;DHT22;46458;50.966;7.002;2023-07-09T00:45:20;24.10;99.90
20384;DHT22;46458;50.966;7.002;2023-07-09T00:47:54;24.20;99.90
20384;DHT22;46458;50.966;7.002;2023-07-09T00:50:33;24.20;99.90
20384;DHT22;46458;50.966;7.002;2023-07-09T00:53:08;24.10;99.90
20384;DHT22;46458;50.966;7.002;2023-07-09T00:55:46;24.10;99.90
20384;DHT22;46458;50.966;7.002;2023-07-09T00:58:19;24.10;99.90
20384;DHT22;46458;50.966;7.002;2023-07-09T01:00:56;24.00;99.90
20384;DHT22;46458;50.966;7.002;2023-07-09T01:03:34;23.90;99.90
20384;DHT22;46458;50.966;7.002;2023-07-09T01:06:06;23.90;99.90
20384;DHT22;46458;50.966;7.002;2023-07-09T01:08:36;23.90;99.90
20384;DHT22;46458;50.966;7.002;2023-07-09T01:11:15;23.90;99.90
20384;DHT22;46458;50.966;7.002;2023-07-09T01:13:47;23.80;99.90
20384;DHT22;46458;50.966;7.002;2023-07-09T01:16:16;23.80;99.90
20384;DHT22;46458;50.966;7.002;2023-07-09T01:18:48;23.70;99.90
20384;DHT22;46458;50.966;7.002;2023-07-09T01:21:19;23.70;99.90
20384;DHT22;46458;50.966;7.002;2023-07-09T01:23:49;23.70;99.90
20384;DHT22;46458;50.966;7.002;2023-07-09T01:26:21;23.80;99.90
20384;DHT22;46458;50.966;7.002;2023-07-09T01:28:50;23.80;99.90
20384;DHT22;46458;50.966;7.002;2023-07-09T01:31:22;23.80;99.90
20384;DHT22;46458;50.966;7.002;2023-07-09T01:33:51;23.70;99.90
20384;DHT22;46458;50.966;7.002;2023-07-09T01:36:23;23.70;99.90
20384;DHT22;46458;50.966;7.002;2023-07-09T01:38:52;23.80;99.90
20384;DHT22;46458;50.966;7.002;2023-07-09T01:41:22;23.80;99.90
20384;DHT22;46458;50.966;7.002;2023-07-09T01:43:52;23.80;99.90
20384;DHT22;46458;50.966;7.002;2023-07-09T01:46:21;23.90;99.90
20384;DHT22;46458;50.966;7.002;2023-07-09T01:48:50;23.80;99.90
20384;DHT22;46458;50.966;7.002;2023-07-09T01:51:18;23.80;99.90
20384;DHT22;46458;50.966;7.002;2023-07-09T01:53:53;23.80;99.90
20384;DHT22;46458;50.966;7.002;2023-07-09T01:56:22;23.80;99.90
20384;DHT22;46458;50.966;7.002;2023-07-09T01:58:51;23.80;99.90
20384;DHT22;46458;50.966;7.002;2023-07-09T02:01:27;23.80;99.90
20384;DHT22;46458;50.966;7.002;2023-07-09T02:03:56;23.70;99.90
20384;DHT22;46458;50.966;7.002;2023-07-09T02:06:25;23.70;99.90
20384;DHT22;46458;50.966;7.002;2023-07-09T02:09:00;23.70;99.90
20384;DHT22;46458;50.966;7.002;2023-07-09T02:11:32;23.60;99.90
20384;DHT22;46458;50.966;7.002;2023-07-09T02:14:01;23.60;99.90
20384;DHT22;46458;50.966;7.002;2023-07-09T02:16:30;23.60;99.90
20384;DHT22;46458;50.966;7.002;2023-07-09T02:18:58;23.60;99.90
20384;DHT22;46458;50.966;7.002;2023-07-09T02:21:28;23.60;99.90
20384;DHT22;46458;50.966;7.002;2023-07-09T02:23:56;23.60;99.90
20384;DHT22;46458;50.966;7.002;2023-07-09T02:26:28;23.60;99.90
20384;DHT22;46458;50.966;7.002;2023-07-09T02:28:56;23.60;99.90
20384;DHT22;46458;50.966;7.002;2023-07-09T02:31:29;23.60;99.90
20384;DHT22;46458;50.966;7.002;2023-07-09T02:34:00;23.50;99.90
20384;DHT22;46458;50.966;7.002;2023-07-09T02:36:29;23.50;99.90
20384;DHT22;46458;50.966;7.002;2023-07-09T02:38:58;23.60;99.90
20384;DHT22;46458;50.966;7.002;2023-07-09T02:41:30;23.60;99.90
20384;DHT22;46458;50.966;7.002;2023-07-09T02:43:59;23.50;99.90
20384;DHT22;46458;50.966;7.002;2023-07-09T02:46:28;23.40;99.90
20384;DHT22;46458;50.966;7.002;2023-07-09T02:48:57;23.30;99.90
20384;DHT22;46458;50.966;7.002;2023-07-09T02:51:26;23.30;99.90
20384;DHT22;46458;50.966;7.002;2023-07-09T02:53:56;23.30;99.90
20384;DHT22;46458;50.966;7.002;2023-07-09T02:56:25;23.30;99.90
20384;DHT22;46458;50.966;7.002;2023-07-09T02:58:57;23.30;99.90
20384;DHT22;46458;50.966;7.002;2023-07-09T03:01:26;23.30;99.90
20384;DHT22;46458;50.966;7.002;2023-07-09T03:03:58;23.30;99.90
20384;DHT22;46458;50.966;7.002;2023-07-09T03:06:29;23.30;99.90
20384;DHT22;46458;50.966;7.002;2023-07-09T03:08:59;23.30;99.90
20384;DHT22;46458;50.966;7.002;2023-07-09T03:11:30;23.30;99.90
20384;DHT22;46458;50.966;7.002;2023-07-09T03:14:02;23.20;99.90
20384;DHT22;46458;50.966;7.002;2023-07-09T03:16:32;23.20;99.90
20384;DHT22;46458;50.966;7.002;2023-07-09T03:19:03;23.10;99.90
20384;DHT22;46458;50.966;7.002;2023-07-09T03:21:32;23.10;99.90
20384;DHT22;46458;50.966;7.002;2023-07-09T03:24:02;23.00;99.90
20384;DHT22;46458;50.966;7.002;2023-07-09T03:26:31;23.10;99.90
20384;DHT22;46458;50.966;7.002;2023-07-09T03:29:02;23.10;99.90
20384;DHT22;46458;50.966;7.002;2023-07-09T03:31:31;23.00;99.90
20384;DHT22;46458;50.966;7.002;2023-07-09T03:34:00;23.00;99.90
20384;DHT22;46458;50.966;7.002;2023-07-09T03:36:30;23.00;99.90
20384;DHT22;46458;50.966;7.002;2023-07-09T03:38:59;23.00;99.90
20384;DHT22;46458;50.966;7.002;2023-07-09T03:41:28;23.00;99.90
20384;DHT22;46458;50.966;7.002;2023-07-09T03:43:57;23.00;99.90
20384;DHT22;46458;50.966;7.002;2023-07-09T03:46:28;23.00;99.90
20384;DHT22;46458;50.966;7.002;2023-07-09T03:48:59;22.90;99.90
20384;DHT22;46458;50.966;7.002;2023-07-09T03:51:29;22.90;99.90
20384;DHT22;46458;50.966;7.002;2023-07-09T03:54:01;22.70;99.90
20384;DHT22;46458;50.966;7.002;2023-07-09T03:56:39;22.80;99.90
20384;DHT22;46458;50.966;7.002;2023-07-09T03:59:07;22.70;99.90
20384;DHT22;46458;50.966;7.002;2023-07-09T04:01:39;22.70;99.90
20384;DHT22;46458;50.966;7.002;2023-07-09T04:04:14;22.70;99.90
20384;DHT22;46458;50.966;7.002;2023-07-09T04:06:46;22.70;99.90
20384;DHT22;46458;50.966;7.002;2023-07-09T04:09:15;22.70;99.90
20384;DHT22;46458;50.966;7.002;2023-07-09T04:11:43;22.70;99.90
20384;DHT22;46458;50.966;7.002;2023-07-09T04:14:15;22.70;99.90
20384;DHT22;46458;50.966;7.002;2023-07-09T04:16:47;22.60;99.90
20384;DHT22;46458;50.966;7.002;2023-07-09T04:19:16;22.60;99.90
20384;DHT22;46458;50.966;7.002;2023-07-09T04:21:45;22.60;99.90
20384;DHT22;46458;50.966;7.002;2023-07-09T04:24:14;22.50;99.90
20384;DHT22;46458;50.966;7.002;2023-07-09T04:26:47;22.60;99.90
20384;DHT22;46458;50.966;7.002;2023-07-09T04:29:25;22.50;99.90
20384;DHT22;46458;50.966;7.002;2023-07-09T04:31:56;22.50;99.90
20384;DHT22;46458;50.966;7.002;2023-07-09T04:34:25;22.60;99.90
20384;DHT22;46458;50.966;7.002;2023-07-09T04:36:54;22.60;99.90
20384;DHT22;46458;50.966;7.002;2023-07-09T04:39:23;22.50;99.90
20384;DHT22;46458;50.966;7.002;2023-07-09T04:41:52;22.60;99.90
20384;DHT22;46458;50.966;7.002;2023-07-09T04:44:21;22.60;99.90
20384;DHT22;46458;50.966;7.002;2023-07-09T04:46:50;22.60;99.90
20384;DHT22;46458;50.966;7.002;2023-07-09T04:49:22;22.60;99.90
20384;DHT22;46458;50.966;7.002;2023-07-09T04:51:51;22.60;99.90
20384;DHT22;46458;50.966;7.002;2023-07-09T04:54:22;22.60;99.90
20384;DHT22;46458;50.966;7.002;2023-07-09T04:56:51;22.60;99.90
20384;DHT22;46458;50.966;7.002;2023-07-09T04:59:20;22.60;99.90
20384;DHT22;46458;50.966;7.002;2023-07-09T05:01:51;22.60;99.90
20384;DHT22;46458;50.966;7.002;2023-07-09T05:04:23;22.70;99.90
20384;DHT22;46458;50.966;7.002;2023-07-09T05:06:51;22.70;99.90
20384;DHT22;46458;50.966;7.002;2023-07-09T05:09:20;22.70;99.90
20384;DHT22;46458;50.966;7.002;2023-07-09T05:11:49;22.70;99.90
20384;DHT22;46458;50.966;7.002;2023-07-09T05:14:19;22.70;99.90
20384;DHT22;46458;50.966;7.002;2023-07-09T05:16:51;22.80;99.90
20384;DHT22;46458;50.966;7.002;2023-07-09T05:19:23;23.00;99.90
20384;DHT22;46458;50.966;7.002;2023-07-09T05:21:52;22.90;99.90
20384;DHT22;46458;50.966;7.002;2023-07-09T05:24:21;22.80;99.90
20384;DHT22;46458;50.966;7.002;2023-07-09T05:26:50;22.80;99.90
20384;DHT22;46458;50.966;7.002;2023-07-09T05:29:19;22.90;99.90
20384;DHT22;46458;50.966;7.002;2023-07-09T05:31:47;22.90;99.90
20384;DHT22;46458;50.966;7.002;2023-07-09T05:34:16;23.00;99.90
20384;DHT22;46458;50.966;7.002;2023-07-09T05:36:48;23.10;99.90
20384;DHT22;46458;50.966;7.002;2023-07-09T05:39:17;23.10;99.90
20384;DHT22;46458;50.966;7.002;2023-07-09T05:41:45;23.20;99.90
20384;DHT22;46458;50.966;7.002;2023-07-09T05:44:14;23.30;99.90
20384;DHT22;46458;50.966;7.002;2023-07-09T05:46:46;23.30;99.90
20384;DHT22;46458;50.966;7.002;2023-07-09T05:49:15;23.30;99.90
20384;DHT22;46458;50.966;7.002;2023-07-09T05:51:48;23.40;99.90
20384;DHT22;46458;50.966;7.002;2023-07-09T05:54:17;23.50;99.90
20384;DHT22;46458;50.966;7.002;2023-07-09T05:56:47;23.60;99.90
20384;DHT22;46458;50.966;7.002;2023-07-09T05:59:16;23.60;99.90
20384;DHT22;46458;50.966;7.002;2023-07-09T06:01:44;23.80;99.90
20384;DHT22;46458;50.966;7.002;2023-07-09T06:04:13;23.80;99.90
20384;DHT22;46458;50.966;7.002;2023-07-09T06:06:42;23.90;99.90
20384;DHT22;46458;50.966;7.002;2023-07-09T06:09:13;23.90;99.90
20384;DHT22;46458;50.966;7.002;2023-07-09T06:11:45;24.00;99.90
20384;DHT22;46458;50.966;7.002;2023-07-09T06:14:14;24.00;99.90
20384;DHT22;46458;50.966;7.002;2023-07-09T06:16:44;24.00;99.90
20384;DHT22;46458;50.966;7.002;2023-07-09T06:19:13;24.00;99.90
20384;DHT22;46458;50.966;7.002;2023-07-09T06:21:42;24.00;99.90
20384;DHT22;46458;50.966;7.002;2023-07-09T06:24:13;24.00;99.90
20384;DHT22;46458;50.966;7.002;2023-07-09T06:26:42;24.20;99.90
20384;DHT22;46458;50.966;7.002;2023-07-09T06:29:11;24.30;99.90
20384;DHT22;46458;50.966;7.002;2023-07-09T06:31:39;24.20;99.90
20384;DHT22;46458;50.966;7.002;2023-07-09T06:34:08;24.30;99.90
20384;DHT22;46458;50.966;7.002;2023-07-09T06:36:37;24.30;99.90
20384;DHT22;46458;50.966;7.002;2023-07-09T06:39:06;24.30;99.90
20384;DHT22;46458;50.966;7.002;2023-07-09T06:41:38;24.40;99.90
20384;DHT22;46458;50.966;7.002;2023-07-09T06:44:25;24.60;99.90
20384;DHT22;46458;50.966;7.002;2023-07-09T06:46:54;24.60;99.90
20384;DHT22;46458;50.966;7.002;2023-07-09T06:49:23;24.90;99.90
20384;DHT22;46458;50.966;7.002;2023-07-09T06:51:52;24.80;99.90
20384;DHT22;46458;50.966;7.002;2023-07-09T06:54:21;24.90;99.90
20384;DHT22;46458;50.966;7.002;2023-07-09T06:56:52;24.90;99.90
20384;DHT22;46458;50.966;7.002;2023-07-09T06:59:21;24.90;99.90
20384;DHT22;46458;50.966;7.002;2023-07-09T07:01:49;25.00;99.90
20384;DHT22;46458;50.966;7.002;2023-07-09T07:04:18;25.10;99.90
20384;DHT22;46458;50.966;7.002;2023-07-09T07:06:47;25.10;99.90
20384;DHT22;46458;50.966;7.002;2023-07-09T07:09:16;25.30;99.90
20384;DHT22;46458;50.966;7.002;2023-07-09T07:11:44;25.40;99.90
20384;DHT22;46458;50.966;7.002;2023-07-09T07:14:16;25.50;99.90
20384;DHT22;46458;50.966;7.002;2023-07-09T07:16:45;25.60;99.90
20384;DHT22;46458;50.966;7.002;2023-07-09T07:19:15;25.70;99.90
20384;DHT22;46458;50.966;7.002;2023-07-09T07:21:50;25.90;99.90
20384;DHT22;46458;50.966;7.002;2023-07-09T07:24:18;25.90;99.90
20384;DHT22;46458;50.966;7.002;2023-07-09T07:26:47;25.90;99.90
20384;DHT22;46458;50.966;7.002;2023-07-09T07:29:19;26.10;99.90
20384;DHT22;46458;50.966;7.002;2023-07-09T07:31:47;26.20;99.90
20384;DHT22;46458;50.966;7.002;2023-07-09T07:34:17;26.20;99.90
20384;DHT22;46458;50.966;7.002;2023-07-09T07:36:47;26.20;99.90
20384;DHT22;46458;50.966;7.002;2023-07-09T07:39:16;26.30;99.90
20384;DHT22;46458;50.966;7.002;2023-07-09T07:41:45;26.50;99.90
20384;DHT22;46458;50.966;7.002;2023-07-09T07:44:24;26.60;99.90
20384;DHT22;46458;50.966;7.002;2023-07-09T07:46:53;26.80;99.90
20384;DHT22;46458;50.966;7.002;2023-07-09T07:49:25;26.90;99.90
20384;DHT22;46458;50.966;7.002;2023-07-09T07:51:54;26.80;99.90
20384;DHT22;46458;50.966;7.002;2023-07-09T07:54:27;26.60;99.90
20384;DHT22;46458;50.966;7.002;2023-07-09T07:56:59;26.80;99.90
20384;DHT22;46458;50.966;7.002;2023-07-09T07:59:31;27.00;99.90
20384;DHT22;46458;50.966;7.002;2023-07-09T08:02:00;27.10;99.90
20384;DHT22;46458;50.966;7.002;2023-07-09T08:04:29;27.00;99.90
20384;DHT22;46458;50.966;7.002;2023-07-09T08:07:04;27.50;99.90
20384;DHT22;46458;50.966;7.002;2023-07-09T08:09:33;27.60;99.90
20384;DHT22;46458;50.966;7.002;2023-07-09T08:12:03;27.70;99.90
20384;DHT22;46458;50.966;7.002;2023-07-09T08:14:38;27.70;99.90
20384;DHT22;46458;50.966;7.002;2023-07-09T08:17:08;27.90;99.90
20384;DHT22;46458;50.966;7.002;2023-07-09T08:19:47;27.90;99.90
20384;DHT22;46458;50.966;7.002;2023-07-09T08:22:17;28.00;99.90
20384;DHT22;46458;50.966;7.002;2023-07-09T08:24:46;28.10;99.90
20384;DHT22;46458;50.966;7.002;2023-07-09T08:27:15;28.20;99.90
20384;DHT22;46458;50.966;7.002;2023-07-09T08:29:47;28.20;99.90
20384;DHT22;46458;50.966;7.002;2023-07-09T08:32:15;28.50;99.90
20384;DHT22;46458;50.966;7.002;2023-07-09T08:34:44;28.40;99.90
20384;DHT22;46458;50.966;7.002;2023-07-09T08:37:16;28.50;99.90
20384;DHT22;46458;50.966;7.002;2023-07-09T08:39:44;28.50;99.90
20384;DHT22;46458;50.966;7.002;2023-07-09T08:42:21;28.60;99.90
20384;DHT22;46458;50.966;7.002;2023-07-09T08:45:12;28.60;99.90
20384;DHT22;46458;50.966;7.002;2023-07-09T08:47:47;28.70;99.90
20384;DHT22;46458;50.966;7.002;2023-07-09T08:50:22;28.80;99.90
20384;DHT22;46458;50.966;7.002;2023-07-09T08:52:53;28.90;99.90
20384;DHT22;46458;50.966;7.002;2023-07-09T08:55:27;29.00;99.90
20384;DHT22;46458;50.966;7.002;2023-07-09T08:58:05;29.00;99.90
20384;DHT22;46458;50.966;7.002;2023-07-09T09:00:48;29.20;99.90
20384;DHT22;46458;50.966;7.002;2023-07-09T09:03:28;29.30;99.90
20384;DHT22;46458;50.966;7.002;2023-07-09T09:06:10;29.50;99.90
20384;DHT22;46458;50.966;7.002;2023-07-09T09:08:41;29.90;99.90
20384;DHT22;46458;50.966;7.002;2023-07-09T09:11:16;29.80;99.90
20384;DHT22;46458;50.966;7.002;2023-07-09T09:13:51;29.80;99.90
20384;DHT22;46458;50.966;7.002;2023-07-09T09:16:27;30.00;99.90
20384;DHT22;46458;50.966;7.002;2023-07-09T09:19:00;30.30;99.90
20384;DHT22;46458;50.966;7.002;2023-07-09T09:21:35;30.60;99.90
20384;DHT22;46458;50.966;7.002;2023-07-09T09:24:14;30.80;99.90
20384;DHT22;46458;50.966;7.002;2023-07-09T09:26:44;31.00;99.90
20384;DHT22;46458;50.966;7.002;2023-07-09T09:29:15;31.00;99.90
20384;DHT22;46458;50.966;7.002;2023-07-09T09:31:49;31.00;99.90
20384;DHT22;46458;50.966;7.002;2023-07-09T09:34:24;30.90;99.90
20384;DHT22;46458;50.966;7.002;2023-07-09T09:36:58;31.10;99.90
20384;DHT22;46458;50.966;7.002;2023-07-09T09:39:27;31.40;99.90
20384;DHT22;46458;50.966;7.002;2023-07-09T09:41:57;31.30;99.90
20384;DHT22;46458;50.966;7.002;2023-07-09T09:44:29;31.40;99.90
20384;DHT22;46458;50.966;7.002;2023-07-09T09:47:03;31.50;99.90
20384;DHT22;46458;50.966;7.002;2023-07-09T09:49:38;31.70;99.90
20384;DHT22;46458;50.966;7.002;2023-07-09T09:52:14;32.00;99.90
20384;DHT22;46458;50.966;7.002;2023-07-09T09:54:52;32.40;99.90
20384;DHT22;46458;50.966;7.002;2023-07-09T09:57:24;32.70;99.90
20384;DHT22;46458;50.966;7.002;2023-07-09T09:59:54;32.70;99.90
20384;DHT22;46458;50.966;7.002;2023-07-09T10:02:24;32.60;99.90
20384;DHT22;46458;50.966;7.002;2023-07-09T10:04:53;32.70;99.90
20384;DHT22;46458;50.966;7.002;2023-07-09T10:07:31;32.90;99.90
20384;DHT22;46458;50.966;7.002;2023-07-09T10:10:08;33.30;99.90
20384;DHT22;46458;50.966;7.002;2023-07-09T10:12:48;33.40;99.90
20384;DHT22;46458;50.966;7.002;2023-07-09T10:15:29;33.50;99.90
20384;DHT22;46458;50.966;7.002;2023-07-09T10:18:03;33.90;99.90
20384;DHT22;46458;50.966;7.002;2023-07-09T10:20:37;33.80;99.90
20384;DHT22;46458;50.966;7.002;2023-07-09T10:23:21;33.90;99.90
20384;DHT22;46458;50.966;7.002;2023-07-09T10:26:02;34.10;99.90
20384;DHT22;46458;50.966;7.002;2023-07-09T10:29:03;34.60;99.90
20384;DHT22;46458;50.966;7.002;2023-07-09T10:31:41;34.40;99.90
20384;DHT22;46458;50.966;7.002;2023-07-09T10:34:20;34.40;99.90
20384;DHT22;46458;50.966;7.002;2023-07-09T10:37:12;34.60;99.90
20384;DHT22;46458;50.966;7.002;2023-07-09T10:39:53;34.90;99.90
20384;DHT22;46458;50.966;7.002;2023-07-09T10:42:27;35.00;99.90
20384;DHT22;46458;50.966;7.002;2023-07-09T10:44:59;34.50;99.90
20384;DHT22;46458;50.966;7.002;2023-07-09T10:47:33;34.50;99.90
20384;DHT22;46458;50.966;7.002;2023-07-09T10:50:06;34.20;99.90
20384;DHT22;46458;50.966;7.002;2023-07-09T10:52:41;34.20;99.90
20384;DHT22;46458;50.966;7.002;2023-07-09T10:55:18;34.40;99.90
20384;DHT22;46458;50.966;7.002;2023-07-09T10:57:56;34.50;99.90
20384;DHT22;46458;50.966;7.002;2023-07-09T11:00:33;34.50;99.90
20384;DHT22;46458;50.966;7.002;2023-07-09T11:03:09;34.60;99.90
20384;DHT22;46458;50.966;7.002;2023-07-09T11:05:40;34.70;99.30
20384;DHT22;46458;50.966;7.002;2023-07-09T11:08:12;34.70;99.40
20384;DHT22;46458;50.966;7.002;2023-07-09T11:10:47;34.90;97.60
20384;DHT22;46458;50.966;7.002;2023-07-09T11:13:19;35.00;97.40
20384;DHT22;46458;50.966;7.002;2023-07-09T11:15:54;35.30;96.40
20384;DHT22;46458;50.966;7.002;2023-07-09T11:18:26;35.50;96.50
20384;DHT22;46458;50.966;7.002;2023-07-09T11:20:59;35.50;96.50
20384;DHT22;46458;50.966;7.002;2023-07-09T11:23:38;35.70;95.70
20384;DHT22;46458;50.966;7.002;2023-07-09T11:26:15;35.80;95.20
20384;DHT22;46458;50.966;7.002;2023-07-09T11:28:55;35.80;95.30
20384;DHT22;46458;50.966;7.002;2023-07-09T11:31:34;35.80;95.60
20384;DHT22;46458;50.966;7.002;2023-07-09T11:34:09;35.80;94.40
20384;DHT22;46458;50.966;7.002;2023-07-09T11:36:47;35.60;94.80
20384;DHT22;46458;50.966;7.002;2023-07-09T11:39:22;35.80;94.30
20384;DHT22;46458;50.966;7.002;2023-07-09T11:41:54;36.00;94.10
20384;DHT22;46458;50.966;7.002;2023-07-09T11:44:31;36.00;94.40
20384;DHT22;46458;50.966;7.002;2023-07-09T11:47:13;36.10;93.80
20384;DHT22;46458;50.966;7.002;2023-07-09T11:49:48;36.00;93.70
20384;DHT22;46458;50.966;7.002;2023-07-09T11:52:22;35.70;93.80
20384;DHT22;46458;50.966;7.002;2023-07-09T11:54:53;35.50;94.20
20384;DHT22;46458;50.966;7.002;2023-07-09T11:57:24;35.70;94.00
20384;DHT22;46458;50.966;7.002;2023-07-09T11:59:59;35.90;93.40
20384;DHT22;46458;50.966;7.002;2023-07-09T12:02:38;35.90;93.50
20384;DHT22;46458;50.966;7.002;2023-07-09T12:05:10;35.80;93.80
20384;DHT22;46458;50.966;7.002;2023-07-09T12:07:39;36.00;93.40
20384;DHT22;46458;50.966;7.002;2023-07-09T12:10:19;35.90;92.50
20384;DHT22;46458;50.966;7.002;2023-07-09T12:12:54;35.80;91.60
20384;DHT22;46458;50.966;7.002;2023-07-09T12:15:25;35.90;91.00
20384;DHT22;46458;50.966;7.002;2023-07-09T12:18:01;35.90;91.30
20384;DHT22;46458;50.966;7.002;2023-07-09T12:20:35;35.70;91.60
20384;DHT22;46458;50.966;7.002;2023-07-09T12:23:11;35.60;91.50
20384;DHT22;46458;50.966;7.002;2023-07-09T12:25:47;35.60;92.10
20384;DHT22;46458;50.966;7.002;2023-07-09T12:28:20;35.80;92.20
20384;DHT22;46458;50.966;7.002;2023-07-09T12:30:51;35.60;91.30
20384;DHT22;46458;50.966;7.002;2023-07-09T12:33:25;35.60;91.70
20384;DHT22;46458;50.966;7.002;2023-07-09T12:35:57;35.80;91.30
20384;DHT22;46458;50.966;7.002;2023-07-09T12:38:29;35.80;91.70
20384;DHT22;46458;50.966;7.002;2023-07-09T12:41:00;35.80;91.40
20384;DHT22;46458;50.966;7.002;2023-07-09T12:43:32;35.30;91.70
20384;DHT22;46458;50.966;7.002;2023-07-09T12:46:01;35.20;91.10
20384;DHT22;46458;50.966;7.002;2023-07-09T12:48:30;35.00;91.10
20384;DHT22;46458;50.966;7.002;2023-07-09T12:51:08;34.80;91.10
20384;DHT22;46458;50.966;7.002;2023-07-09T12:53:39;34.80;90.60
20384;DHT22;46458;50.966;7.002;2023-07-09T12:56:12;34.60;91.80
20384;DHT22;46458;50.966;7.002;2023-07-09T12:58:45;34.40;92.70
20384;DHT22;46458;50.966;7.002;2023-07-09T13:01:15;34.30;92.40
20384;DHT22;46458;50.966;7.002;2023-07-09T13:03:54;34.40;92.00
20384;DHT22;46458;50.966;7.002;2023-07-09T13:06:27;34.40;92.30
20384;DHT22;46458;50.966;7.002;2023-07-09T13:08:58;34.30;92.40
20384;DHT22;46458;50.966;7.002;2023-07-09T13:11:33;34.40;91.80
20384;DHT22;46458;50.966;7.002;2023-07-09T13:14:21;34.50;91.20
20384;DHT22;46458;50.966;7.002;2023-07-09T13:16:50;34.50;90.70
20384;DHT22;46458;50.966;7.002;2023-07-09T13:19:20;34.40;90.50
20384;DHT22;46458;50.966;7.002;2023-07-09T13:21:52;34.40;90.80
20384;DHT22;46458;50.966;7.002;2023-07-09T13:24:23;34.30;90.90
20384;DHT22;46458;50.966;7.002;2023-07-09T13:26:53;34.30;90.90
20384;DHT22;46458;50.966;7.002;2023-07-09T13:29:27;34.20;90.80
20384;DHT22;46458;50.966;7.002;2023-07-09T13:31:56;34.20;90.80
20384;DHT22;46458;50.966;7.002;2023-07-09T13:34:27;34.10;90.80
20384;DHT22;46458;50.966;7.002;2023-07-09T13:36:59;34.10;90.90
20384;DHT22;46458;50.966;7.002;2023-07-09T13:39:28;34.00;90.90
20384;DHT22;46458;50.966;7.002;2023-07-09T13:41:57;34.00;91.30
20384;DHT22;46458;50.966;7.002;2023-07-09T13:44:30;34.00;91.40
20384;DHT22;46458;50.966;7.002;2023-07-09T13:46:59;33.90;91.60
20384;DHT22;46458;50.966;7.002;2023-07-09T13:49:28;33.90;91.10
20384;DHT22;46458;50.966;7.002;2023-07-09T13:52:02;33.60;91.50
20384;DHT22;46458;50.966;7.002;2023-07-09T13:54:32;33.30;92.10
20384;DHT22;46458;50.966;7.002;2023-07-09T13:57:05;33.40;93.20
20384;DHT22;46458;50.966;7.002;2023-07-09T13:59:37;33.30;94.80
20384;DHT22;46458;50.966;7.002;2023-07-09T14:02:19;33.20;95.90
20384;DHT22;46458;50.966;7.002;2023-07-09T14:04:50;33.00;98.50
20384;DHT22;46458;50.966;7.002;2023-07-09T14:07:29;32.90;99.90
20384;DHT22;46458;50.966;7.002;2023-07-09T14:09:59;32.80;99.90
20384;DHT22;46458;50.966;7.002;2023-07-09T14:12:29;32.50;99.90
20384;DHT22;46458;50.966;7.002;2023-07-09T14:15:13;32.00;98.50
20384;DHT22;46458;50.966;7.002;2023-07-09T14:17:45;31.60;98.20
20384;DHT22;46458;50.966;7.002;2023-07-09T14:20:15;31.20;97.00
20384;DHT22;46458;50.966;7.002;2023-07-09T14:22:48;31.10;96.70
20384;DHT22;46458;50.966;7.002;2023-07-09T14:25:22;31.10;97.10
20384;DHT22;46458;50.966;7.002;2023-07-09T14:27:52;31.00;97.30
20384;DHT22;46458;50.966;7.002;2023-07-09T14:30:25;31.10;97.50
20384;DHT22;46458;50.966;7.002;2023-07-09T14:32:54;31.10;98.60
20384;DHT22;46458;50.966;7.002;2023-07-09T14:35:24;31.10;99.30
20384;DHT22;46458;50.966;7.002;2023-07-09T14:37:55;31.00;99.90
20384;DHT22;46458;50.966;7.002;2023-07-09T14:40:25;30.60;99.70
20384;DHT22;46458;50.966;7.002;2023-07-09T14:42:57;30.00;99.90
20384;DHT22;46458;50.966;7.002;2023-07-09T14:45:31;29.80;99.90
20384;DHT22;46458;50.966;7.002;2023-07-09T14:48:09;29.40;99.90
20384;DHT22;46458;50.966;7.002;2023-07-09T14:50:38;28.80;99.90
20384;DHT22;46458;50.966;7.002;2023-07-09T14:53:13;28.50;99.90
20384;DHT22;46458;50.966;7.002;2023-07-09T14:55:43;28.00;99.90
20384;DHT22;46458;50.966;7.002;2023-07-09T14:58:18;27.60;99.90
20384;DHT22;46458;50.966;7.002;2023-07-09T15:00:55;27.60;99.90
20384;DHT22;46458;50.966;7.002;2023-07-09T15:03:25;27.50;99.90
20384;DHT22;46458;50.966;7.002;2023-07-09T15:05:56;27.50;99.90
20384;DHT22;46458;50.966;7.002;2023-07-09T15:08:29;27.50;99.90
20384;DHT22;46458;50.966;7.002;2023-07-09T15:11:00;27.50;99.90
20384;DHT22;46458;50.966;7.002;2023-07-09T15:13:31;27.60;99.90
20384;DHT22;46458;50.966;7.002;2023-07-09T15:16:05;27.50;99.90
20384;DHT22;46458;50.966;7.002;2023-07-09T15:18:34;27.40;99.90
20384;DHT22;46458;50.966;7.002;2023-07-09T15:21:04;27.10;99.90
20384;DHT22;46458;50.966;7.002;2023-07-09T15:23:36;26.90;99.90
20384;DHT22;46458;50.966;7.002;2023-07-09T15:26:13;26.80;99.90
20384;DHT22;46458;50.966;7.002;2023-07-09T15:28:43;26.90;99.90
20384;DHT22;46458;50.966;7.002;2023-07-09T15:31:17;27.10;99.90
20384;DHT22;46458;50.966;7.002;2023-07-09T15:33:46;27.10;99.90
20384;DHT22;46458;50.966;7.002;2023-07-09T15:36:17;27.10;99.90
20384;DHT22;46458;50.966;7.002;2023-07-09T15:38:46;27.20;99.90
20384;DHT22;46458;50.966;7.002;2023-07-09T15:41:15;27.30;99.90
20384;DHT22;46458;50.966;7.002;2023-07-09T15:43:45;27.30;99.90
20384;DHT22;46458;50.966;7.002;2023-07-09T15:46:20;27.50;99.90
20384;DHT22;46458;50.966;7.002;2023-07-09T15:48:50;27.60;99.90
20384;DHT22;46458;50.966;7.002;2023-07-09T15:51:21;27.60;99.90
20384;DHT22;46458;50.966;7.002;2023-07-09T15:53:52;27.70;99.90
20384;DHT22;46458;50.966;7.002;2023-07-09T15:56:24;27.60;99.90
20384;DHT22;46458;50.966;7.002;2023-07-09T15:58:59;27.70;99.90
20384;DHT22;46458;50.966;7.002;2023-07-09T16:01:33;27.60;99.90